Historyczne dane pomiarowe

Dodano dane terminowe – wersja testowa.

Dane z okresu 1951-2019

Wersja bazy: 1.34 [2019-03-16, lista zmian], aktualizacja planowana na 2019-04-15

Dane meteo z obszaru Polski uzyskane na podstawie danych udostępnionych przez Instytut Meteorologii i Gospodarki Wodnej – Państwowy Instytut Badawczy.

 

Wybierz Datę:    

       

TemperaturaWilgotnośćWiatrCiśnienieOpadyŚniegCzas trwania zjawisk
 Stacja t tx tn tng RH VA  wxwx mslp ppp RRR   cm mm wxwxwxwxwxwxwx
1994-08-14 15.0 19.6 11.4 10.2 74.8- 4.7 5.3---- 2.8------------
1994-08-13 16.6 20.9 13.9 13.2 92.3- 7.3 6.7---- 1.3------------
1994-08-12 17.4 21.7 16.0 15.7 95.8- 7.0 3.7---- 0.3------------
1994-08-11 19.2 23.6 13.4 11.5 87.8- 5.7 2.3---- 5.0------------
1994-08-10 20.4 25.4 16.1 15.6 76.5- 4.7 3.3---- 0.0------------
1994-08-09 21.5 28.2 15.8 13.8 86.0- 6.0 2.0---- 2.1------------
1994-08-08 21.7 27.3 17.0 15.7 79.0- 5.7 2.0---- 3.0------------
1994-08-07 23.9 31.4 12.9 9.8 61.0- 1.7 3.0---- 0.0------------
1994-08-06 23.0 30.4 12.4 9.3 63.8- 0.0 2.3---- 0.0------------
1994-08-05 23.2 30.1 14.6 11.9 66.5- 1.0 1.0---- 0.0------------
1994-08-04 23.0 29.1 17.0 15.4 78.0- 3.3 1.7---- 0.9------------
1994-08-03 25.6 33.0 16.6 13.8 63.3- 2.7 2.7---- 7.3------------
1994-08-02 24.8 33.3 14.1 11.4 56.3- 0.7 1.7---- 0.0------------
1994-08-01 25.5 32.5 16.6 13.7 64.0- 0.0 1.7---- 0.0------------
1994-07-31 26.2 33.7 15.9 13.2 65.3- 1.0 0.3---- 0.4------------
1994-07-30 25.9 32.1 15.7 12.5 62.3- 1.0 1.3---- 0.0------------
1994-07-29 25.5 33.5 12.9 10.7 57.5- 1.0 1.0---- 0.0------------
1994-07-28 25.3 31.7 14.1 10.3 56.0- 0.0 0.7---- 0.0------------
1994-07-27 24.5 31.5 14.4 11.7 58.3- 1.0 0.7---- 0.0------------
1994-07-26 24.9 31.7 14.6 10.6 59.5- 1.0 1.7---- 0.0------------
1994-07-25 23.5 30.3 13.0 9.9 56.3- 2.0 1.7---- 0.0------------
1994-07-24 22.3 29.1 12.0 9.8 57.0- 2.0 2.0---- 0.0------------
1994-07-23 21.4 28.2 12.8 9.2 60.3- 1.7 1.7---- 0.0------------
1994-07-22 20.0 26.3 11.1 8.4 63.5- 1.3 2.7---- 0.0------------
1994-07-21 20.0 25.9 10.4 7.9 62.0- 0.7 1.3---- 0.0------------
1994-07-20 17.9 23.8 9.4 7.4 61.5- 1.3 1.3---- 0.0------------
1994-07-19 19.5 24.3 14.7 13.6 72.0- 1.7 2.3---- 0.0------------
1994-07-18 19.9 25.9 16.4 15.1 88.3- 6.0 1.3---- 0.0------------
1994-07-17 22.7 30.2 13.3 9.5 66.5- 2.7 2.7---- 8.0------------
1994-07-16 24.1 30.9 11.8 9.3 55.5- 0.7 1.3---- 0.0------------
1994-07-15 23.1 28.2 14.1 12.1 64.0- 0.0 2.0---- 0.0------------
1994-07-14 21.9 27.7 14.9 12.6 75.0- 6.0 1.7---- 2.4------------
1994-07-13 22.4 29.2 11.3 8.5 58.0- 3.0 2.7---- 0.0------------
1994-07-12 22.6 28.2 14.6 13.1 67.0- 1.7 2.3---- 0.0------------
1994-07-11 17.1 22.5 11.3 8.8 90.5- 8.0 2.3---- 0.0------------
1994-07-10 18.4 23.7 10.2 7.2 77.8- 6.0 4.3---- 0.0------------
1994-07-09 16.5 20.9 10.8 9.0 70.8- 7.7 3.3---- 0.9------------
1994-07-08 18.6 22.8 16.0 15.2 72.3- 5.0 3.3---- 0.0------------
1994-07-07 19.2 26.2 6.8 5.5 63.5- 5.0 2.0---- 0.0------------
1994-07-06 18.0 23.8 9.8 7.8 63.8- 1.7 1.0---- 0.0------------
1994-07-05 19.9 26.1 10.5 7.5 67.5- 3.3 1.3---- 0.0------------
1994-07-04 19.5 25.7 10.4 6.8 65.8- 0.0 2.0---- 0.0------------
1994-07-03 18.2 24.9 7.6 4.2 64.8- 0.0 0.7---- 0.0------------
1994-07-02 17.3 23.2 9.6 5.5 72.0- 0.0 2.7---- 0.0------------
1994-07-01 18.4 24.2 13.8 11.9 75.3- 0.3 3.7---- 0.0------------
1994-06-30 23.2 31.1 14.8 12.1 78.3- 4.3 1.7---- 0.0------------
1994-06-29 23.6 29.4 13.8 10.2 70.0- 0.0 1.0---- 0.0------------
1994-06-28 23.2 27.4 15.7 12.7 72.8- 0.0 2.3---- 0.0------------
1994-06-27 23.5 30.9 12.6 9.8 69.5- 1.3 3.7---- 0.0------------
1994-06-26 20.0 27.3 8.6 6.2 66.8- 0.0 2.7---- 0.0------------
1994-06-25 15.0 20.8 6.1 3.8 71.0- 2.0 3.3---- 0.0------------
1994-06-24 13.1 18.9 5.7 3.6 67.0- 2.0 7.0---- 0.0------------
1994-06-23 18.5 22.4 15.7 15.3 57.8- 2.3 8.3---- 0.0------------
1994-06-22 17.7 25.8 5.3 3.1 71.0- 2.3 3.3---- 0.2------------
1994-06-21 14.5 19.8 5.7 1.7 71.3- 1.3 2.3---- 0.0------------
1994-06-20 16.2 20.6 12.4 7.7 75.3- 4.7 5.3---- 0.0------------
1994-06-19 14.9 19.8 10.7 10.4 86.5- 6.3 4.7---- 0.0------------
1994-06-18 11.4 17.2 2.9 0.7 71.8- 4.3 3.0---- 1.1------------
1994-06-17 11.5 15.2 8.6 8.1 79.5- 6.3 6.3---- 0.0------------
1994-06-16 12.5 17.9 4.2 2.3 74.8- 4.0 5.7---- 4.4------------
293.1 ms

 

Źródłem pochodzenia danych jest Instytut Meteorologii i Gospodarki Wodnej – Państwowy Instytut Badawczy. Dane Instytutu Meteorologii i Gospodarki Wodnej – Państwowego Instytutu Badawczego zostały przetworzone.

Dane źródłowe można odnaleźć na stronie https://dane.imgw.pl